createdAt,value
2023-02-15T00:01:24.117Z,4.42
2023-02-15T00:03:51.668Z,4.40
2023-02-15T00:06:18.352Z,4.37
2023-02-15T00:08:45.058Z,4.36
2023-02-15T00:11:14.944Z,4.34
2023-02-15T00:13:42.681Z,4.32
2023-02-15T00:16:12.467Z,4.31
2023-02-15T00:18:40.418Z,4.29
2023-02-15T00:21:09.620Z,4.28
2023-02-15T00:23:37.050Z,4.26
2023-02-15T00:28:41.875Z,4.19
2023-02-15T00:31:11.632Z,4.16
2023-02-15T00:33:40.331Z,4.14
2023-02-15T00:36:10.209Z,4.13
2023-02-15T00:38:37.569Z,4.09
2023-02-15T00:41:06.711Z,4.08
2023-02-15T00:43:34.655Z,4.06
2023-02-15T00:46:02.234Z,4.05
2023-02-15T00:48:29.023Z,4.03
2023-02-15T00:50:58.624Z,4.02
2023-02-15T00:53:27.195Z,4.01
2023-02-15T00:55:53.986Z,4.00
2023-02-15T00:58:21.050Z,4.00
2023-02-15T01:00:48.374Z,4.00
2023-02-15T01:03:16.959Z,4.01
2023-02-15T01:05:43.766Z,4.00
2023-02-15T01:08:10.578Z,3.99
2023-02-15T01:10:37.378Z,3.99
2023-02-15T01:13:04.171Z,3.99
2023-02-15T01:15:30.770Z,3.97
2023-02-15T01:17:57.493Z,3.95
2023-02-15T01:20:27.524Z,3.93
2023-02-15T01:22:54.978Z,3.91
2023-02-15T01:25:23.868Z,3.87
2023-02-15T01:27:50.872Z,3.84
2023-02-15T01:30:17.960Z,3.82
2023-02-15T01:32:44.824Z,3.81
2023-02-15T01:35:12.208Z,3.81
2023-02-15T01:37:39.574Z,3.79
2023-02-15T01:40:09.027Z,3.80
2023-02-15T01:42:35.693Z,3.79
2023-02-15T01:45:05.449Z,3.79
2023-02-15T01:47:44.670Z,3.78
2023-02-15T01:53:04.807Z,3.77
2023-02-15T01:55:40.741Z,3.76
2023-02-15T01:58:08.565Z,3.77
2023-02-15T02:00:36.123Z,3.78
2023-02-15T02:03:04.135Z,3.78
2023-02-15T02:05:31.392Z,3.79
2023-02-15T02:08:01.013Z,3.78
2023-02-15T02:10:28.432Z,3.79
2023-02-15T02:13:01.019Z,3.77
2023-02-15T02:15:53.667Z,3.72
2023-02-15T02:29:49.264Z,3.52
2023-02-15T02:40:24.703Z,3.50
2023-02-15T02:43:00.978Z,3.46
2023-02-15T02:45:36.920Z,3.45
2023-02-15T02:48:09.315Z,3.44
2023-02-15T02:50:35.854Z,3.45
2023-02-15T02:53:02.710Z,3.46
2023-02-15T02:55:37.370Z,3.46
2023-02-15T03:06:13.287Z,3.58
2023-02-15T03:08:45.577Z,3.53
2023-02-15T03:11:12.640Z,3.47
2023-02-15T03:13:40.516Z,3.43
2023-02-15T03:16:29.992Z,3.41
2023-02-15T03:19:06.914Z,3.32
2023-02-15T03:22:04.850Z,3.27
2023-02-15T03:27:18.681Z,3.14
2023-02-15T03:29:54.681Z,3.08
2023-02-15T03:32:22.866Z,3.06
2023-02-15T03:34:49.574Z,3.04
2023-02-15T03:40:31.011Z,2.96
2023-02-15T03:43:10.050Z,2.93
2023-02-15T03:45:39.339Z,2.90
2023-02-15T03:48:09.336Z,2.88
2023-02-15T03:50:58.991Z,2.85
2023-02-15T03:53:27.123Z,2.79
2023-02-15T03:55:55.928Z,2.77
2023-02-15T03:58:42.529Z,2.76
2023-02-15T04:01:42.918Z,2.70
2023-02-15T04:04:18.952Z,2.70
2023-02-15T04:06:45.642Z,2.73
2023-02-15T04:09:33.714Z,2.76
2023-02-15T04:12:00.732Z,2.79
2023-02-15T04:14:47.218Z,2.79
2023-02-15T04:17:13.781Z,2.82
2023-02-15T04:20:00.286Z,2.82
2023-02-15T04:22:46.777Z,2.82
2023-02-15T04:25:14.573Z,2.85
2023-02-15T04:27:44.583Z,2.88
2023-02-15T04:30:12.942Z,2.91
2023-02-15T04:32:39.682Z,2.94
2023-02-15T04:35:07.201Z,2.96
2023-02-15T04:37:34.522Z,2.98
2023-02-15T04:40:01.103Z,3.00
2023-02-15T04:42:28.452Z,3.02
2023-02-15T04:44:55.212Z,3.03
2023-02-15T04:47:21.754Z,3.05
2023-02-15T04:49:48.394Z,3.07
2023-02-15T04:52:15.326Z,3.09
2023-02-15T04:54:41.938Z,3.13
2023-02-15T04:57:08.454Z,3.16
2023-02-15T04:59:35.016Z,3.18
2023-02-15T05:02:01.660Z,3.19
2023-02-15T05:04:28.378Z,3.20
2023-02-15T05:06:55.009Z,3.23
2023-02-15T05:09:21.551Z,3.23
2023-02-15T05:11:48.271Z,3.22
2023-02-15T05:14:14.906Z,3.26
2023-02-15T05:16:41.599Z,3.26
2023-02-15T05:19:08.356Z,3.28
2023-02-15T05:21:35.081Z,3.28
2023-02-15T05:24:01.633Z,3.28
2023-02-15T05:26:48.078Z,3.29
2023-02-15T05:29:14.650Z,3.26
2023-02-15T05:31:41.924Z,3.27
2023-02-15T05:34:08.590Z,3.26
2023-02-15T05:36:35.151Z,3.26
2023-02-15T05:39:01.696Z,3.25
2023-02-15T05:41:28.366Z,3.25
2023-02-15T05:43:56.936Z,3.28
2023-02-15T05:46:23.538Z,3.27
2023-02-15T05:48:50.154Z,3.27
2023-02-15T05:51:17.964Z,3.27
2023-02-15T05:53:44.819Z,3.21
2023-02-15T05:56:13.039Z,3.24
2023-02-15T05:58:41.478Z,3.26
2023-02-15T06:03:46.605Z,3.69
2023-02-15T06:06:13.307Z,3.45
2023-02-15T06:08:39.855Z,3.37
2023-02-15T06:11:06.614Z,3.34
2023-02-15T06:13:35.975Z,3.32
2023-02-15T06:16:05.085Z,3.29
2023-02-15T06:18:31.946Z,3.26
2023-02-15T06:20:58.493Z,3.20
2023-02-15T06:23:25.114Z,3.20
2023-02-15T06:25:51.827Z,3.16
2023-02-15T06:28:18.399Z,3.12
2023-02-15T06:30:44.964Z,3.13
2023-02-15T06:33:11.552Z,3.07
2023-02-15T06:35:38.154Z,3.10
2023-02-15T06:38:04.751Z,3.10
2023-02-15T06:40:31.289Z,3.10
2023-02-15T06:42:57.813Z,3.10
2023-02-15T06:45:24.405Z,3.11
2023-02-15T06:47:50.965Z,3.11
2023-02-15T06:50:17.531Z,3.13
2023-02-15T06:52:44.093Z,3.14
2023-02-15T06:55:10.668Z,3.14
2023-02-15T06:57:37.510Z,3.15
2023-02-15T07:00:05.961Z,3.17
2023-02-15T07:02:34.243Z,3.17
2023-02-15T07:05:00.883Z,3.16
2023-02-15T07:07:27.538Z,3.18
2023-02-15T07:09:54.156Z,3.19
2023-02-15T07:12:40.621Z,3.18
2023-02-15T07:15:08.628Z,3.18
2023-02-15T07:17:36.352Z,3.17
2023-02-15T07:20:06.062Z,3.16
2023-02-15T07:22:35.031Z,3.16
2023-02-15T07:25:01.872Z,3.17
2023-02-15T07:27:28.474Z,3.18
2023-02-15T07:29:55.015Z,3.17
2023-02-15T07:32:21.715Z,3.17
2023-02-15T07:34:48.292Z,3.15
2023-02-15T07:37:14.987Z,3.15
2023-02-15T07:39:41.538Z,3.15
2023-02-15T07:42:08.061Z,3.15
2023-02-15T07:44:34.606Z,3.16
2023-02-15T07:47:01.184Z,3.18
2023-02-15T07:49:27.906Z,3.20
2023-02-15T07:51:54.510Z,3.24
2023-02-15T07:54:21.299Z,3.25
2023-02-15T07:56:47.948Z,3.26
2023-02-15T07:59:14.547Z,3.26
2023-02-15T08:01:41.340Z,3.28
2023-02-15T08:04:10.544Z,3.30
2023-02-15T08:06:38.018Z,3.33
2023-02-15T08:09:07.071Z,3.37
2023-02-15T08:11:37.876Z,3.42
2023-02-15T08:16:50.455Z,3.51
2023-02-15T08:19:21.262Z,3.57
2023-02-15T08:21:51.331Z,3.64
2023-02-15T08:24:20.956Z,3.71
2023-02-15T08:26:48.744Z,3.76
2023-02-15T08:29:17.191Z,3.86
2023-02-15T08:31:44.160Z,3.93
2023-02-15T08:34:12.689Z,4.06
2023-02-15T08:36:39.292Z,4.23
2023-02-15T08:39:07.157Z,4.46
2023-02-15T08:41:37.462Z,4.74
2023-02-15T08:44:07.682Z,4.98
2023-02-15T08:46:37.351Z,5.26
2023-02-15T08:49:04.787Z,5.59
2023-02-15T08:51:34.744Z,5.94
2023-02-15T08:54:05.190Z,6.57
2023-02-15T08:56:34.746Z,7.38
2023-02-15T08:59:02.026Z,8.32
2023-02-15T09:01:31.163Z,9.20
2023-02-15T09:04:00.404Z,9.96
2023-02-15T09:06:27.768Z,10.65
2023-02-15T09:08:55.727Z,11.30
2023-02-15T09:11:25.098Z,11.95
2023-02-15T09:13:55.319Z,12.58
2023-02-15T09:16:22.194Z,13.00
2023-02-15T09:18:49.550Z,13.46
2023-02-15T09:21:18.778Z,13.79
2023-02-15T09:23:47.387Z,14.19
2023-02-15T09:26:17.590Z,14.46
2023-02-15T09:28:44.738Z,14.76
2023-02-15T09:33:51.691Z,15.38
2023-02-15T09:38:59.762Z,15.88
2023-02-15T09:41:48.184Z,16.18
2023-02-15T09:44:54.528Z,16.37
2023-02-15T10:17:24.900Z,18.77
2023-02-15T10:23:07.390Z,18.71
2023-02-15T10:26:15.080Z,18.84
2023-02-15T10:29:05.495Z,18.94
2023-02-15T10:31:51.943Z,18.89
2023-02-15T10:34:27.925Z,18.80
2023-02-15T10:40:24.276Z,18.62
2023-02-15T10:45:42.913Z,18.61
2023-02-15T10:48:49.342Z,18.79
2023-02-15T10:51:30.672Z,18.92
2023-02-15T10:54:13.938Z,18.88
2023-02-15T11:05:50.209Z,18.21
2023-02-15T11:08:17.479Z,17.67
2023-02-15T11:10:53.184Z,17.18
2023-02-15T11:13:23.539Z,16.81
2023-02-15T11:16:03.868Z,16.45
2023-02-15T11:23:46.079Z,16.11
2023-02-15T11:26:19.820Z,15.87
2023-02-15T11:28:52.568Z,15.75
2023-02-15T11:31:24.089Z,15.63
2023-02-15T11:33:57.200Z,15.39
2023-02-15T11:36:29.156Z,15.16
2023-02-15T11:39:01.572Z,15.02
2023-02-15T11:41:32.822Z,14.94
2023-02-15T11:44:07.472Z,14.88
2023-02-15T11:46:34.198Z,14.76
2023-02-15T11:49:00.791Z,14.71
2023-02-15T11:51:29.815Z,14.60
2023-02-15T11:53:57.240Z,14.44
2023-02-15T11:56:25.689Z,14.29
2023-02-15T12:04:25.373Z,14.00
2023-02-15T12:07:02.195Z,14.00
2023-02-15T12:12:25.981Z,13.88
2023-02-15T12:14:55.127Z,13.85
2023-02-15T12:17:24.914Z,13.81
2023-02-15T12:19:54.335Z,13.78
2023-02-15T12:25:03.316Z,13.86
2023-02-15T12:27:33.197Z,13.87
2023-02-15T12:30:05.182Z,13.88
2023-02-15T12:32:36.762Z,13.77
2023-02-15T12:35:14.956Z,13.77
2023-02-15T12:37:54.983Z,13.74
2023-02-15T12:40:31.288Z,13.75
2023-02-15T12:42:59.304Z,13.74
2023-02-15T12:48:21.602Z,13.65
2023-02-15T12:50:57.498Z,13.71
2023-02-15T12:53:33.409Z,13.73
2023-02-15T12:56:03.771Z,13.77
2023-02-15T12:58:32.433Z,13.82
2023-02-15T13:01:12.172Z,13.82
2023-02-15T13:04:07.242Z,13.84
2023-02-15T13:06:37.621Z,13.91
2023-02-15T13:09:18.839Z,13.91
2023-02-15T13:11:47.023Z,13.95
2023-02-15T13:14:27.575Z,13.94
2023-02-15T13:16:59.349Z,13.97
2023-02-15T13:22:13.890Z,13.96
2023-02-15T13:24:44.324Z,13.99
2023-02-15T13:27:18.688Z,14.09
2023-02-15T13:29:50.572Z,14.17
2023-02-15T13:35:06.080Z,14.25
2023-02-15T13:38:12.813Z,14.18
2023-02-15T13:40:52.115Z,14.13
2023-02-15T13:49:32.330Z,13.94
2023-02-15T14:01:10.173Z,13.84
2023-02-15T14:14:44.128Z,13.74
2023-02-15T14:17:32.776Z,13.68
2023-02-15T14:20:09.371Z,13.70
2023-02-15T14:22:43.969Z,13.70
2023-02-15T14:28:28.998Z,13.88
2023-02-15T14:30:56.325Z,13.74
2023-02-15T14:33:35.260Z,13.68
2023-02-15T14:36:04.918Z,13.66
2023-02-15T14:39:06.623Z,13.55
2023-02-15T14:41:49.544Z,13.54
2023-02-15T14:47:05.958Z,13.51
2023-02-15T14:49:36.740Z,13.51
2023-02-15T15:07:59.249Z,13.54
2023-02-15T15:13:39.864Z,13.36
2023-02-15T15:19:05.695Z,13.31
2023-02-15T15:36:09.098Z,12.99
2023-02-15T15:41:51.370Z,12.88
2023-02-15T15:47:37.077Z,12.82
2023-02-15T15:50:13.688Z,12.79
2023-02-15T15:52:45.614Z,12.80
2023-02-15T15:55:19.207Z,12.75
2023-02-15T15:57:50.631Z,12.74
2023-02-15T16:00:43.317Z,12.65
2023-02-15T16:03:23.042Z,12.64
2023-02-15T16:05:55.198Z,12.64
2023-02-15T16:08:40.070Z,12.56
2023-02-15T16:11:21.942Z,12.54
2023-02-15T16:13:48.538Z,12.55
2023-02-15T16:16:22.616Z,12.50
2023-02-15T16:18:49.875Z,12.51
2023-02-15T16:21:21.903Z,12.51
2023-02-15T16:29:27.167Z,12.84
2023-02-15T16:32:04.516Z,12.56
2023-02-15T16:34:33.577Z,12.52
2023-02-15T16:37:24.349Z,12.42
2023-02-15T16:39:51.388Z,12.42
2023-02-15T16:42:18.753Z,12.39
2023-02-15T16:44:49.065Z,12.36
2023-02-15T16:47:20.828Z,12.32
2023-02-15T16:49:50.843Z,12.30
2023-02-15T16:52:21.742Z,12.10
2023-02-15T16:54:54.578Z,12.19
2023-02-15T16:57:24.880Z,12.18
2023-02-15T16:59:54.411Z,12.16
2023-02-15T17:02:49.251Z,12.12
2023-02-15T17:08:10.914Z,12.03
2023-02-15T17:10:42.766Z,11.98
2023-02-15T17:13:18.055Z,11.92
2023-02-15T17:18:47.030Z,11.80
2023-02-15T17:21:19.913Z,11.77
2023-02-15T17:23:49.315Z,11.76
2023-02-15T17:26:22.268Z,11.72
2023-02-15T17:28:52.013Z,11.71
2023-02-15T17:31:20.510Z,11.69
2023-02-15T17:33:48.008Z,11.67
2023-02-15T17:36:23.646Z,11.64
2023-02-15T17:41:38.093Z,11.63
2023-02-15T17:44:05.365Z,11.57
2023-02-15T17:46:37.919Z,11.57
2023-02-15T17:49:04.959Z,11.56
2023-02-15T17:51:33.254Z,11.54
2023-02-15T17:54:19.730Z,11.52
2023-02-15T17:56:46.474Z,11.51
2023-02-15T17:59:14.121Z,11.50
2023-02-15T18:02:07.239Z,11.46
2023-02-15T18:04:55.902Z,11.44
2023-02-15T18:07:43.148Z,11.43
2023-02-15T18:10:34.713Z,11.39
2023-02-15T18:13:01.379Z,11.36
2023-02-15T18:15:28.452Z,11.36
2023-02-15T18:17:55.402Z,11.34
2023-02-15T18:20:28.267Z,11.32
2023-02-15T18:22:55.118Z,11.30
2023-02-15T18:25:25.530Z,11.27
2023-02-15T18:27:54.922Z,11.26
2023-02-15T18:30:24.041Z,11.25
2023-02-15T18:32:53.989Z,11.23
2023-02-15T18:35:24.317Z,11.21
2023-02-15T18:37:53.527Z,11.19
2023-02-15T18:40:22.761Z,11.18
2023-02-15T18:42:49.612Z,11.17
2023-02-15T18:45:24.275Z,11.15
2023-02-15T18:47:51.359Z,11.13
2023-02-15T18:50:20.148Z,11.12
2023-02-15T18:52:48.840Z,11.10
2023-02-15T18:57:56.278Z,11.07
2023-02-15T19:03:02.229Z,11.02
2023-02-15T19:05:30.276Z,11.00
2023-02-15T19:07:58.721Z,10.98
2023-02-15T19:10:28.575Z,10.94
2023-02-15T19:12:56.036Z,10.91
2023-02-15T19:15:25.303Z,10.88
2023-02-15T19:17:52.392Z,10.83
2023-02-15T19:20:23.252Z,10.83
2023-02-15T19:22:52.066Z,10.78
2023-02-15T19:25:25.349Z,10.73
2023-02-15T19:27:53.062Z,10.68
2023-02-15T19:30:24.551Z,10.63
2023-02-15T19:32:51.152Z,10.52
2023-02-15T19:35:21.912Z,10.44
2023-02-15T19:37:51.883Z,10.36
2023-02-15T19:42:56.813Z,10.19
2023-02-15T19:45:26.143Z,10.12
2023-02-15T19:47:55.114Z,10.03
2023-02-15T19:50:24.890Z,9.96
2023-02-15T19:52:52.146Z,9.89
2023-02-15T19:55:28.839Z,9.76
2023-02-15T19:57:56.907Z,9.72
2023-02-15T20:00:26.389Z,9.65
2023-02-15T20:02:53.872Z,9.59
2023-02-15T20:05:21.449Z,9.51
2023-02-15T20:07:52.341Z,9.44
2023-02-15T20:10:35.675Z,9.34
2023-02-15T20:13:02.855Z,9.32
2023-02-15T20:15:32.610Z,9.28
2023-02-15T20:18:02.847Z,9.23
2023-02-15T20:20:38.852Z,9.16
2023-02-15T20:23:07.059Z,9.10
2023-02-15T20:25:34.226Z,9.05
2023-02-15T20:28:01.917Z,9.00
2023-02-15T20:30:31.626Z,8.95
2023-02-15T20:32:58.284Z,8.90
2023-02-15T20:35:28.728Z,8.86
2023-02-15T20:37:59.616Z,8.82
2023-02-15T20:43:02.779Z,8.70
2023-02-15T20:45:32.206Z,8.68
2023-02-15T20:48:01.520Z,8.64
2023-02-15T20:50:33.390Z,8.58
2023-02-15T20:53:02.794Z,8.56
2023-02-15T20:55:31.518Z,8.49
2023-02-15T20:57:59.496Z,8.46
2023-02-15T21:00:29.316Z,8.41
2023-02-15T21:02:58.563Z,8.40
2023-02-15T21:05:27.847Z,8.40
2023-02-15T21:07:54.826Z,8.40
2023-02-15T21:10:24.167Z,8.41
2023-02-15T21:12:51.635Z,8.41
2023-02-15T21:17:58.766Z,8.48
2023-02-15T21:20:27.017Z,8.52
2023-02-15T21:22:54.435Z,8.54
2023-02-15T21:25:37.283Z,8.53
2023-02-15T21:28:05.549Z,8.55
2023-02-15T21:30:32.166Z,8.56
2023-02-15T21:32:58.737Z,8.57
2023-02-15T21:35:25.529Z,8.57
2023-02-15T21:37:53.244Z,8.58
2023-02-15T21:40:28.701Z,8.55
2023-02-15T21:43:15.401Z,8.57
2023-02-15T21:46:02.210Z,8.57
2023-02-15T21:48:28.820Z,8.54
2023-02-15T21:51:15.441Z,8.57
2023-02-15T21:53:45.918Z,8.57
2023-02-15T21:56:16.693Z,8.57
2023-02-15T21:58:43.600Z,8.58
2023-02-15T22:01:22.213Z,8.54
2023-02-15T22:03:49.699Z,8.56
2023-02-15T22:06:16.385Z,8.56
2023-02-15T22:08:43.562Z,8.56
2023-02-15T22:11:14.194Z,8.52
2023-02-15T22:13:42.167Z,8.48
2023-02-15T22:16:17.161Z,8.48
2023-02-15T22:18:44.322Z,8.46
2023-02-15T22:21:11.654Z,8.44
2023-02-15T22:23:38.924Z,8.40
2023-02-15T22:28:42.503Z,8.32
2023-02-15T22:31:15.055Z,8.23
2023-02-15T22:33:42.026Z,8.18
2023-02-15T22:36:23.162Z,8.08
2023-02-15T22:38:49.798Z,8.04
2023-02-15T22:41:17.222Z,7.99
2023-02-15T22:43:45.558Z,7.95
2023-02-15T22:46:16.297Z,7.91
2023-02-15T22:48:44.444Z,7.86
2023-02-15T22:51:14.269Z,7.81
2023-02-15T22:53:41.299Z,7.78
2023-02-15T22:56:14.260Z,7.75
2023-02-15T22:58:40.866Z,7.70
2023-02-15T23:01:22.192Z,7.70
2023-02-15T23:03:48.785Z,7.67
2023-02-15T23:06:15.763Z,7.64
2023-02-15T23:08:42.334Z,7.61
2023-02-15T23:11:10.439Z,7.59
2023-02-15T23:13:37.731Z,7.56
2023-02-15T23:16:07.150Z,7.54
2023-02-15T23:18:43.978Z,7.51
2023-02-15T23:23:50.200Z,7.41
2023-02-15T23:28:54.580Z,7.41
2023-02-15T23:31:24.926Z,7.43
2023-02-15T23:33:52.606Z,7.29
2023-02-15T23:36:38.088Z,7.34
2023-02-15T23:39:35.072Z,7.34
2023-02-15T23:42:05.144Z,7.35
2023-02-15T23:44:32.245Z,7.36
2023-02-15T23:46:59.087Z,7.37
2023-02-15T23:49:25.648Z,7.34
2023-02-15T23:51:54.601Z,7.36
2023-02-15T23:54:24.091Z,7.37
2023-02-15T23:56:53.555Z,7.38
2023-02-15T23:59:25.483Z,7.38
